createdAt,value
2024-04-16T04:47:47.459Z,98128.47
2024-04-16T04:50:15.206Z,98130.47
2024-04-16T04:52:42.624Z,98124.25
2024-04-16T04:55:10.229Z,98124.78
2024-04-16T04:57:37.839Z,98122.25
2024-04-16T05:00:05.645Z,98113.53
2024-04-16T05:02:33.161Z,98127.19
2024-04-16T05:05:00.735Z,98117.84
2024-04-16T05:07:28.141Z,98120.63
2024-04-16T05:09:55.834Z,98120.09
2024-04-16T05:12:23.960Z,98124.00
2024-04-16T05:14:51.882Z,98122.78
2024-04-16T05:17:19.348Z,98117.59
2024-04-16T05:19:47.097Z,98109.59
2024-04-16T05:22:14.693Z,98109.59
2024-04-16T05:24:42.530Z,98118.88
2024-04-16T05:27:10.521Z,98112.72
2024-04-16T05:29:38.290Z,98110.00
2024-04-16T05:32:06.166Z,98087.34
2024-04-16T05:34:34.021Z,98082.97
2024-04-16T05:37:01.620Z,98089.84
2024-04-16T05:39:29.393Z,98088.09
2024-04-16T05:41:57.166Z,98083.44
2024-04-16T05:44:24.842Z,98079.53
2024-04-16T05:46:52.457Z,98077.47
2024-04-16T05:49:20.638Z,98074.22
2024-04-16T05:51:48.252Z,98066.63
2024-04-16T05:54:15.986Z,98070.50
2024-04-16T05:56:43.615Z,98074.00
2024-04-16T05:59:11.277Z,98071.19
2024-04-16T06:01:38.919Z,98076.66
2024-04-16T06:04:06.916Z,98076.31
2024-04-16T06:06:34.653Z,98058.50
2024-04-16T06:09:02.418Z,98059.16
2024-04-16T06:11:31.518Z,98045.91
2024-04-16T06:14:02.292Z,98040.16
2024-04-16T06:16:30.099Z,98032.25
2024-04-16T06:18:57.774Z,98039.31
2024-04-16T06:21:25.532Z,98045.72
2024-04-16T06:23:53.121Z,98048.84
2024-04-16T06:26:20.881Z,98046.25
2024-04-16T06:28:48.620Z,98055.31
2024-04-16T06:31:17.365Z,98050.75
2024-04-16T06:33:45.317Z,98048.16
2024-04-16T06:36:12.990Z,98041.22
2024-04-16T06:38:40.707Z,98038.16
2024-04-16T06:41:08.466Z,98045.03
2024-04-16T06:43:36.211Z,98043.00
2024-04-16T06:46:04.188Z,98026.19
2024-04-16T06:48:35.691Z,98023.56
2024-04-16T06:51:03.591Z,98036.59
2024-04-16T06:53:31.266Z,98031.72
2024-04-16T06:56:03.164Z,98031.84
2024-04-16T06:58:31.042Z,98026.03
